Terminal Aerodrome Forecast
Issued by NWS Upton, NY

Home | Current Version | Previous Version | Text Only | Print | Product List | Glossary On
Versions: 1 2 3 4 5 6 7 8 9 10 11 12 13 14 15 16 17 18 19 20 21 22 23 24 25 26 27 28 29 30
926
FTUS41 KOKX 040526
TAFBDR
TAF
KBDR 040526Z 0406/0506 06008KT 4SM BR OVC006
     FM041500 07010G15KT 4SM -SHRA BR SCT008 OVC012
     FM042300 05010G14KT 3SM -DZ SCT005 BKN008=

USA.gov is the U.S. government's official web portal to all federal, state and local government web resources and services.